createdAt,value
2022-12-18T00:01:24.854Z,31.59
2022-12-18T00:03:51.476Z,31.92
2022-12-18T00:06:18.075Z,32.47
2022-12-18T00:08:44.430Z,33.15
2022-12-18T00:11:10.827Z,32.23
2022-12-18T00:13:37.565Z,32.65
2022-12-18T00:16:04.260Z,32.36
2022-12-18T00:18:30.688Z,32.46
2022-12-18T00:20:57.074Z,32.63
2022-12-18T00:23:23.461Z,32.37
2022-12-18T00:25:49.856Z,30.97
2022-12-18T00:28:16.238Z,29.49
2022-12-18T00:30:42.619Z,29.09
2022-12-18T00:33:08.973Z,29.25
2022-12-18T00:35:35.358Z,30.64
2022-12-18T00:38:01.723Z,31.28
2022-12-18T00:40:28.054Z,31.75
2022-12-18T00:42:54.451Z,32.05
2022-12-18T00:45:20.791Z,31.97
2022-12-18T00:47:47.146Z,31.12
2022-12-18T00:50:13.543Z,31.17
2022-12-18T00:52:39.911Z,30.92
2022-12-18T00:55:06.683Z,31.78
2022-12-18T00:57:33.216Z,31.41
2022-12-18T00:59:59.567Z,31.84
2022-12-18T01:02:26.010Z,31.22
2022-12-18T01:04:52.460Z,30.23
2022-12-18T01:07:18.824Z,31.46
2022-12-18T01:09:45.382Z,31.70
2022-12-18T01:12:11.755Z,30.97
2022-12-18T01:14:38.166Z,29.63
2022-12-18T01:17:04.503Z,29.52
2022-12-18T01:19:30.891Z,30.74
2022-12-18T01:21:57.249Z,31.10
2022-12-18T01:24:23.605Z,30.64
2022-12-18T01:26:49.982Z,31.24
2022-12-18T01:29:16.315Z,31.24
2022-12-18T01:31:42.731Z,31.99
2022-12-18T01:34:09.194Z,33.04
2022-12-18T01:36:35.552Z,33.04
2022-12-18T01:39:01.889Z,32.29
2022-12-18T01:41:28.285Z,32.52
2022-12-18T01:43:54.689Z,32.03
2022-12-18T01:46:21.098Z,34.82
2022-12-18T01:48:47.479Z,35.66
2022-12-18T01:51:13.809Z,36.43
2022-12-18T01:53:40.601Z,36.52
2022-12-18T01:56:07.206Z,35.30
2022-12-18T01:58:33.533Z,37.22
2022-12-18T02:00:59.880Z,35.72
2022-12-18T02:03:26.392Z,34.28
2022-12-18T02:05:52.900Z,32.93
2022-12-18T02:08:19.245Z,32.30
2022-12-18T02:10:45.634Z,32.50
2022-12-18T02:13:11.999Z,33.08
2022-12-18T02:15:38.350Z,33.00
2022-12-18T02:18:04.715Z,32.64
2022-12-18T02:20:31.041Z,31.67
2022-12-18T02:22:57.391Z,32.50
2022-12-18T02:25:23.740Z,32.52
2022-12-18T02:27:50.078Z,33.74
2022-12-18T02:30:16.596Z,33.19
2022-12-18T02:32:42.968Z,33.65
2022-12-18T02:35:09.319Z,31.63
2022-12-18T02:37:35.686Z,31.52
2022-12-18T02:40:02.107Z,30.36
2022-12-18T02:42:28.474Z,29.69
2022-12-18T02:44:54.907Z,30.84
2022-12-18T02:47:21.293Z,30.64
2022-12-18T02:49:47.610Z,29.55
2022-12-18T02:52:13.954Z,29.25
2022-12-18T02:54:40.389Z,29.45
2022-12-18T02:57:06.816Z,29.38
2022-12-18T02:59:33.178Z,30.58
2022-12-18T03:02:00.103Z,30.98
2022-12-18T03:04:26.615Z,29.78
2022-12-18T03:06:52.959Z,28.91
2022-12-18T03:09:19.345Z,27.49
2022-12-18T03:11:45.699Z,28.82
2022-12-18T03:14:12.075Z,29.12
2022-12-18T03:16:38.504Z,30.74
2022-12-18T03:19:04.883Z,30.23
2022-12-18T03:21:31.219Z,29.53
2022-12-18T03:23:57.591Z,30.25
2022-12-18T03:26:23.927Z,31.36
2022-12-18T03:28:50.258Z,32.10
2022-12-18T03:31:16.618Z,31.93
2022-12-18T03:33:43.115Z,33.12
2022-12-18T03:36:09.594Z,33.27
2022-12-18T03:38:35.957Z,33.27
2022-12-18T03:41:02.354Z,33.59
2022-12-18T03:43:28.737Z,32.07
2022-12-18T03:45:55.131Z,33.12
2022-12-18T03:48:21.549Z,33.87
2022-12-18T03:50:47.867Z,33.17
2022-12-18T03:53:14.247Z,33.63
2022-12-18T03:55:40.607Z,34.09
2022-12-18T03:58:06.967Z,33.80
2022-12-18T04:00:33.343Z,34.04
2022-12-18T04:02:59.680Z,34.34
2022-12-18T04:05:26.018Z,34.49
2022-12-18T04:07:52.438Z,32.97
2022-12-18T04:10:18.773Z,33.64
2022-12-18T04:12:45.115Z,33.31
2022-12-18T04:15:11.610Z,34.17
2022-12-18T04:17:37.944Z,35.24
2022-12-18T04:20:04.268Z,33.36
2022-12-18T04:22:30.689Z,34.24
2022-12-18T04:24:56.997Z,35.38
2022-12-18T04:27:23.411Z,36.98
2022-12-18T04:29:49.780Z,35.74
2022-12-18T04:32:16.097Z,35.80
2022-12-18T04:34:42.428Z,35.35
2022-12-18T04:37:08.759Z,35.87
2022-12-18T04:39:35.062Z,35.54
2022-12-18T04:42:01.400Z,36.59
2022-12-18T04:44:27.755Z,36.43
2022-12-18T04:46:54.105Z,34.99
2022-12-18T04:49:20.919Z,35.14
2022-12-18T04:51:47.277Z,35.11
2022-12-18T04:54:13.607Z,35.28
2022-12-18T04:56:39.939Z,35.75
2022-12-18T04:59:06.295Z,35.82
2022-12-18T05:01:34.801Z,34.33
2022-12-18T05:04:01.643Z,34.64
2022-12-18T05:06:28.076Z,34.64
2022-12-18T05:08:54.408Z,34.06
2022-12-18T05:11:20.740Z,33.01
2022-12-18T05:13:47.133Z,32.23
2022-12-18T05:16:13.566Z,31.88
2022-12-18T05:18:39.916Z,32.15
2022-12-18T05:21:06.257Z,32.38
2022-12-18T05:23:32.599Z,33.14
2022-12-18T05:25:58.981Z,32.45
2022-12-18T05:28:25.374Z,32.71
2022-12-18T05:30:51.753Z,31.81
2022-12-18T05:33:18.160Z,33.60
2022-12-18T05:35:44.505Z,33.35
2022-12-18T05:38:10.857Z,33.94
2022-12-18T05:40:37.222Z,35.13
2022-12-18T05:43:03.578Z,33.77
2022-12-18T05:45:29.900Z,34.16
2022-12-18T05:47:56.292Z,34.16
2022-12-18T05:50:23.468Z,34.19
2022-12-18T05:52:50.474Z,34.49
2022-12-18T05:55:16.851Z,32.64
2022-12-18T05:57:43.207Z,33.67
2022-12-18T06:00:09.532Z,34.61
2022-12-18T06:02:35.939Z,34.45
2022-12-18T06:05:02.388Z,34.84
2022-12-18T06:07:28.719Z,34.59
2022-12-18T06:09:55.051Z,34.96
2022-12-18T06:12:21.469Z,35.12
2022-12-18T06:14:47.908Z,35.21
2022-12-18T06:17:14.240Z,36.28
2022-12-18T06:19:40.669Z,35.78
2022-12-18T06:22:06.999Z,36.22
2022-12-18T06:24:33.305Z,35.83
2022-12-18T06:26:59.659Z,36.26
2022-12-18T06:29:25.977Z,35.53
2022-12-18T06:31:52.377Z,35.52
2022-12-18T06:34:18.757Z,35.32
2022-12-18T06:36:45.090Z,35.04
2022-12-18T06:39:11.431Z,34.61
2022-12-18T06:41:37.932Z,35.13
2022-12-18T06:44:05.417Z,35.27
2022-12-18T06:46:31.728Z,34.94
2022-12-18T06:48:58.107Z,34.76
2022-12-18T06:51:24.443Z,34.91
2022-12-18T06:53:50.766Z,33.29
2022-12-18T06:56:17.374Z,33.63
2022-12-18T06:58:43.766Z,33.91
2022-12-18T07:01:10.246Z,33.26
2022-12-18T07:03:36.954Z,32.72
2022-12-18T07:06:03.806Z,33.45
2022-12-18T07:08:30.162Z,33.20
2022-12-18T07:10:56.680Z,32.91
2022-12-18T07:13:23.032Z,32.80
2022-12-18T07:15:49.595Z,33.78
2022-12-18T07:18:16.104Z,33.46
2022-12-18T07:20:42.409Z,33.77
2022-12-18T07:23:08.713Z,33.15
2022-12-18T07:25:35.065Z,32.56
2022-12-18T07:28:01.670Z,32.04
2022-12-18T07:30:27.964Z,33.14
2022-12-18T07:32:54.378Z,32.20
2022-12-18T07:35:24.770Z,31.78
2022-12-18T07:37:51.594Z,31.89
2022-12-18T07:40:17.935Z,32.03
2022-12-18T07:42:44.236Z,31.39
2022-12-18T07:45:10.532Z,31.86
2022-12-18T07:47:36.877Z,32.49
2022-12-18T07:50:03.174Z,31.35
2022-12-18T07:52:29.479Z,31.56
2022-12-18T07:54:55.837Z,32.09
2022-12-18T07:57:48.864Z,31.98
2022-12-18T08:00:08.488Z,31.81
2022-12-18T08:02:34.887Z,30.91
2022-12-18T08:05:01.907Z,30.94
2022-12-18T08:07:28.263Z,31.76
2022-12-18T08:09:54.567Z,30.49
2022-12-18T08:12:20.882Z,30.40
2022-12-18T08:14:47.212Z,29.72
2022-12-18T08:17:13.539Z,30.42
2022-12-18T08:19:39.838Z,29.15
2022-12-18T08:22:06.175Z,28.91
2022-12-18T08:24:35.510Z,28.91
2022-12-18T08:27:31.662Z,29.17
2022-12-18T08:29:48.206Z,29.84
2022-12-18T08:32:14.629Z,30.03
2022-12-18T08:34:40.968Z,28.77
2022-12-18T08:37:07.293Z,29.88
2022-12-18T08:39:33.619Z,30.41
2022-12-18T08:42:00.862Z,29.99
2022-12-18T08:44:29.451Z,32.05
2022-12-18T08:46:55.776Z,31.66
2022-12-18T08:49:22.083Z,30.46
2022-12-18T08:51:48.429Z,30.42
2022-12-18T08:54:14.795Z,30.07
2022-12-18T08:56:41.110Z,28.93
2022-12-18T08:59:07.444Z,29.39
2022-12-18T09:01:34.011Z,30.25
2022-12-18T09:04:01.743Z,30.85
2022-12-18T09:06:28.085Z,31.24
2022-12-18T09:08:54.398Z,30.62
2022-12-18T09:11:20.735Z,31.37
2022-12-18T09:13:47.057Z,31.99
2022-12-18T09:16:13.375Z,33.31
2022-12-18T09:18:40.058Z,32.32
2022-12-18T09:21:06.564Z,32.15
2022-12-18T09:23:32.917Z,32.36
2022-12-18T09:26:00.310Z,31.58
2022-12-18T09:28:26.742Z,31.28
2022-12-18T09:30:53.112Z,31.60
2022-12-18T09:33:19.530Z,30.69
2022-12-18T09:35:45.959Z,30.57
2022-12-18T09:38:12.307Z,30.50
2022-12-18T09:40:38.697Z,31.08
2022-12-18T09:43:05.087Z,31.70
2022-12-18T09:45:33.710Z,31.56
2022-12-18T09:48:00.081Z,33.15
2022-12-18T09:50:26.504Z,33.95
2022-12-18T09:52:52.867Z,32.95
2022-12-18T09:55:19.239Z,31.06
2022-12-18T09:57:45.624Z,31.15
2022-12-18T10:00:11.957Z,30.40
2022-12-18T10:02:38.429Z,30.28
2022-12-18T10:05:04.899Z,30.67
2022-12-18T10:07:31.247Z,31.55
2022-12-18T10:09:57.594Z,31.34
2022-12-18T10:12:24.027Z,32.07
2022-12-18T10:14:50.416Z,31.96
2022-12-18T10:17:16.812Z,31.43
2022-12-18T10:19:44.196Z,30.50
2022-12-18T10:22:10.566Z,31.43
2022-12-18T10:24:36.939Z,31.79
2022-12-18T10:27:03.415Z,32.33
2022-12-18T10:29:29.767Z,31.55
2022-12-18T10:31:56.151Z,32.04
2022-12-18T10:34:22.583Z,32.05
2022-12-18T10:36:49.215Z,31.65
2022-12-18T10:39:15.673Z,32.54
2022-12-18T10:41:42.090Z,31.68
2022-12-18T10:44:08.448Z,32.66
2022-12-18T10:46:34.873Z,32.39
2022-12-18T10:49:01.298Z,32.66
2022-12-18T10:51:27.683Z,32.42
2022-12-18T10:53:57.840Z,31.72
2022-12-18T10:56:24.244Z,32.22
2022-12-18T10:58:50.654Z,32.59
2022-12-18T11:01:17.159Z,32.52
2022-12-18T11:03:43.795Z,32.52
2022-12-18T11:06:10.308Z,32.42
2022-12-18T11:08:38.507Z,32.26
2022-12-18T11:11:06.807Z,31.46
2022-12-18T11:13:33.437Z,31.96
2022-12-18T11:15:59.835Z,31.22
2022-12-18T11:18:26.279Z,31.94
2022-12-18T11:20:58.650Z,31.75
2022-12-18T11:23:25.339Z,31.47
2022-12-18T11:25:51.724Z,30.99
2022-12-18T11:28:26.883Z,30.53
2022-12-18T11:30:53.279Z,30.79
2022-12-18T11:33:19.683Z,31.43
2022-12-18T11:35:46.039Z,31.77
2022-12-18T11:38:12.409Z,30.72
2022-12-18T11:40:41.308Z,30.73
2022-12-18T11:43:08.024Z,31.43
2022-12-18T11:45:34.919Z,30.82
2022-12-18T11:48:02.300Z,30.36
2022-12-18T11:50:28.818Z,30.90
2022-12-18T11:53:02.850Z,30.68
2022-12-18T11:55:32.170Z,30.15
2022-12-18T11:57:58.529Z,30.32
2022-12-18T12:00:24.899Z,31.48
2022-12-18T12:02:51.329Z,31.04
2022-12-18T12:05:17.812Z,31.54
2022-12-18T12:07:44.251Z,31.44
2022-12-18T12:10:10.603Z,32.29
2022-12-18T12:12:41.815Z,31.40
2022-12-18T12:15:11.547Z,31.31
2022-12-18T12:17:37.957Z,32.23
2022-12-18T12:20:04.413Z,32.26
2022-12-18T12:22:30.824Z,31.27
2022-12-18T12:24:57.204Z,31.14
2022-12-18T12:27:23.721Z,31.41
2022-12-18T12:29:50.131Z,31.59
2022-12-18T12:32:18.607Z,30.66
2022-12-18T12:34:45.168Z,31.71
2022-12-18T12:37:11.588Z,32.28
2022-12-18T12:39:37.981Z,31.57
2022-12-18T12:42:06.672Z,31.83
2022-12-18T12:44:33.052Z,32.83
2022-12-18T12:46:59.529Z,31.83
2022-12-18T12:49:26.112Z,31.30
2022-12-18T12:51:52.626Z,31.49
2022-12-18T12:54:19.092Z,32.95
2022-12-18T12:56:45.616Z,32.43
2022-12-18T12:59:12.037Z,32.14
2022-12-18T13:01:38.601Z,30.41
2022-12-18T13:04:05.290Z,31.21
2022-12-18T13:06:31.664Z,31.00
2022-12-18T13:08:59.787Z,32.11
2022-12-18T13:11:27.492Z,31.15
2022-12-18T13:13:54.187Z,31.68
2022-12-18T13:16:21.129Z,31.04
2022-12-18T13:18:47.671Z,31.46
2022-12-18T13:21:15.182Z,31.04
2022-12-18T13:23:47.684Z,31.06
2022-12-18T13:26:14.040Z,32.06
2022-12-18T13:28:41.656Z,31.66
2022-12-18T13:31:08.476Z,31.98
2022-12-18T13:33:35.007Z,31.66
2022-12-18T13:36:01.761Z,30.68
2022-12-18T13:38:29.470Z,30.66
2022-12-18T13:40:56.265Z,31.32
2022-12-18T13:43:22.647Z,30.71
2022-12-18T13:45:49.027Z,31.39
2022-12-18T13:48:15.408Z,30.68
2022-12-18T13:50:42.818Z,31.05
2022-12-18T13:53:09.223Z,31.44
2022-12-18T13:55:35.713Z,31.49
2022-12-18T13:58:02.097Z,31.56
2022-12-18T14:00:28.692Z,32.96
2022-12-18T14:02:55.128Z,31.74
2022-12-18T14:05:21.575Z,31.39
2022-12-18T14:07:51.298Z,30.89
2022-12-18T14:13:04.436Z,30.99
2022-12-18T14:15:32.338Z,31.71
2022-12-18T14:17:59.587Z,31.40
2022-12-18T14:20:25.950Z,30.01
2022-12-18T14:22:52.922Z,30.84
2022-12-18T14:25:19.450Z,31.22
2022-12-18T14:27:45.826Z,31.34
2022-12-18T14:30:12.204Z,32.12
2022-12-18T14:32:38.563Z,31.57
2022-12-18T14:35:05.092Z,32.43
2022-12-18T14:37:31.470Z,32.77
2022-12-18T14:39:57.925Z,32.86
2022-12-18T14:42:24.352Z,32.59
2022-12-18T14:45:12.393Z,33.02
2022-12-18T14:47:37.173Z,31.88
2022-12-18T14:50:03.601Z,33.14
2022-12-18T14:52:29.938Z,33.35
2022-12-18T14:54:56.369Z,32.72
2022-12-18T14:57:22.755Z,33.75
2022-12-18T14:59:49.150Z,34.40
2022-12-18T15:02:15.724Z,35.56
2022-12-18T15:04:44.201Z,34.14
2022-12-18T15:07:11.035Z,34.53
2022-12-18T15:09:37.479Z,34.04
2022-12-18T15:12:03.894Z,34.36
2022-12-18T15:14:30.244Z,34.53
2022-12-18T15:16:56.680Z,33.98
2022-12-18T15:19:23.064Z,33.88
2022-12-18T15:21:49.397Z,34.41
2022-12-18T15:24:15.790Z,34.59
2022-12-18T15:26:42.148Z,33.63
2022-12-18T15:29:12.745Z,33.85
2022-12-18T15:31:42.055Z,34.83
2022-12-18T15:34:08.435Z,34.77
2022-12-18T15:36:34.763Z,34.57
2022-12-18T15:39:05.350Z,33.60
2022-12-18T15:41:33.100Z,34.06
2022-12-18T15:44:01.640Z,34.61
2022-12-18T15:46:28.110Z,33.30
2022-12-18T15:49:01.202Z,34.06
2022-12-18T15:51:28.421Z,32.41
2022-12-18T15:53:54.805Z,34.49
2022-12-18T15:56:21.165Z,34.69
2022-12-18T15:58:47.531Z,36.02
2022-12-18T16:01:14.176Z,39.00
2022-12-18T16:03:41.092Z,40.12
2022-12-18T16:06:07.766Z,39.09
2022-12-18T16:08:34.385Z,36.37
2022-12-18T16:11:00.728Z,35.79
2022-12-18T16:13:27.169Z,33.79
2022-12-18T16:15:53.649Z,34.92
2022-12-18T16:18:23.007Z,35.87
2022-12-18T16:20:49.403Z,36.89
2022-12-18T16:23:15.739Z,34.48
2022-12-18T16:25:42.091Z,34.02
2022-12-18T16:28:08.496Z,40.72
2022-12-18T16:30:38.580Z,44.27
2022-12-18T16:33:07.618Z,37.99
2022-12-18T16:35:34.182Z,38.79
2022-12-18T16:38:03.607Z,38.16
2022-12-18T16:40:29.954Z,36.78
2022-12-18T16:42:56.312Z,40.03
2022-12-18T16:45:22.711Z,38.53
2022-12-18T16:47:51.376Z,40.23
2022-12-18T16:50:17.767Z,37.86
2022-12-18T16:52:44.127Z,36.27
2022-12-18T16:55:10.478Z,36.06
2022-12-18T16:57:36.851Z,40.03
2022-12-18T17:00:05.609Z,40.97
2022-12-18T17:02:32.532Z,40.14
2022-12-18T17:04:59.162Z,38.07
2022-12-18T17:07:25.554Z,34.92
2022-12-18T17:09:52.019Z,35.76
2022-12-18T17:12:18.469Z,35.40
2022-12-18T17:14:44.928Z,34.32
2022-12-18T17:17:26.662Z,36.52
2022-12-18T17:19:53.100Z,37.27
2022-12-18T17:22:19.442Z,35.31
2022-12-18T17:24:45.884Z,34.62
2022-12-18T17:27:12.281Z,35.93
2022-12-18T17:29:43.844Z,35.64
2022-12-18T17:32:15.082Z,41.30
2022-12-18T17:34:41.422Z,60.80
2022-12-18T17:37:07.808Z,67.26
2022-12-18T17:39:34.366Z,53.67
2022-12-18T17:42:00.772Z,60.46
2022-12-18T17:44:27.173Z,49.29
2022-12-18T17:46:53.679Z,41.29
2022-12-18T17:49:20.126Z,37.64
2022-12-18T17:51:50.521Z,35.89
2022-12-18T17:54:32.160Z,36.98
2022-12-18T17:56:58.587Z,38.89
2022-12-18T17:59:24.959Z,39.43
2022-12-18T18:01:51.473Z,36.81
2022-12-18T18:04:18.558Z,35.91
2022-12-18T18:06:44.983Z,37.02
2022-12-18T18:09:16.685Z,36.33
2022-12-18T18:11:43.420Z,35.53
2022-12-18T18:14:10.049Z,37.39
2022-12-18T18:16:36.591Z,40.76
2022-12-18T18:19:03.047Z,41.98
2022-12-18T18:21:29.406Z,38.68
2022-12-18T18:23:56.465Z,40.55
2022-12-18T18:26:22.808Z,39.33
2022-12-18T18:28:52.455Z,39.07
2022-12-18T18:31:19.237Z,38.42
2022-12-18T18:33:45.618Z,38.93
2022-12-18T18:36:11.974Z,38.16
2022-12-18T18:38:38.464Z,37.50
2022-12-18T18:41:04.836Z,37.83
2022-12-18T18:43:32.711Z,40.47
2022-12-18T18:45:59.160Z,40.76
2022-12-18T18:48:25.554Z,39.27
2022-12-18T18:50:54.375Z,40.07
2022-12-18T18:53:20.747Z,40.22
2022-12-18T18:55:59.090Z,40.24
2022-12-18T18:58:33.603Z,40.23
2022-12-18T19:01:00.104Z,39.66
2022-12-18T19:03:26.748Z,39.39
2022-12-18T19:05:53.233Z,40.84
2022-12-18T19:08:19.584Z,42.81
2022-12-18T19:10:45.932Z,43.25
2022-12-18T19:13:12.319Z,39.54
2022-12-18T19:15:38.695Z,38.35
2022-12-18T19:18:05.097Z,38.66
2022-12-18T19:20:31.713Z,38.21
2022-12-18T19:22:58.092Z,37.08
2022-12-18T19:25:30.697Z,38.17
2022-12-18T19:28:07.172Z,40.35
2022-12-18T19:30:41.686Z,40.61
2022-12-18T19:33:34.038Z,41.53
2022-12-18T19:35:54.548Z,40.24
2022-12-18T19:38:21.085Z,41.41
2022-12-18T19:40:47.520Z,41.68
2022-12-18T19:43:13.929Z,39.45
2022-12-18T19:45:40.398Z,38.63
2022-12-18T19:48:06.757Z,37.15
2022-12-18T19:50:33.152Z,36.59
2022-12-18T19:53:00.783Z,38.46
2022-12-18T19:55:27.363Z,38.31
2022-12-18T19:57:59.015Z,38.74
2022-12-18T20:00:25.665Z,39.49
2022-12-18T20:02:55.359Z,39.77
2022-12-18T20:05:31.938Z,39.14
2022-12-18T20:07:59.004Z,40.04
2022-12-18T20:10:31.580Z,39.63
2022-12-18T20:12:58.027Z,39.09
2022-12-18T20:15:25.573Z,38.74
2022-12-18T20:17:59.772Z,39.93
2022-12-18T20:20:28.726Z,39.60
2022-12-18T20:23:02.462Z,38.68
2022-12-18T20:25:29.068Z,40.24
2022-12-18T20:28:20.410Z,40.40
2022-12-18T20:30:48.120Z,39.78
2022-12-18T20:33:14.456Z,40.78
2022-12-18T20:35:40.791Z,39.98
2022-12-18T20:38:07.974Z,39.64
2022-12-18T20:40:35.395Z,39.04
2022-12-18T20:43:01.788Z,38.73
2022-12-18T20:45:28.181Z,38.98
2022-12-18T20:47:54.550Z,39.41
2022-12-18T20:50:20.892Z,40.24
2022-12-18T20:52:47.275Z,40.23
2022-12-18T20:55:13.616Z,39.91
2022-12-18T20:57:39.970Z,40.35
2022-12-18T21:00:06.336Z,39.63
2022-12-18T21:02:32.878Z,39.72
2022-12-18T21:04:59.359Z,41.07
2022-12-18T21:07:25.795Z,41.66
2022-12-18T21:09:52.154Z,40.88
2022-12-18T21:12:18.508Z,40.09
2022-12-18T21:14:44.904Z,42.21
2022-12-18T21:17:11.404Z,41.91
2022-12-18T21:19:37.782Z,40.56
2022-12-18T21:22:04.525Z,40.48
2022-12-18T21:24:32.999Z,40.25
2022-12-18T21:26:59.490Z,40.68
2022-12-18T21:29:26.095Z,39.32
2022-12-18T21:31:52.427Z,39.81
2022-12-18T21:34:18.792Z,40.23
2022-12-18T21:36:45.146Z,39.03
2022-12-18T21:39:12.536Z,40.51
2022-12-18T21:41:42.297Z,42.89
2022-12-18T21:44:08.973Z,42.33
2022-12-18T21:46:35.398Z,43.11
2022-12-18T21:49:01.942Z,43.73
2022-12-18T21:51:28.327Z,43.20
2022-12-18T21:53:54.682Z,42.63
2022-12-18T21:56:21.030Z,42.77
2022-12-18T21:58:56.800Z,43.36
2022-12-18T22:01:23.594Z,45.63
2022-12-18T22:03:50.113Z,42.91
2022-12-18T22:06:19.622Z,40.86
2022-12-18T22:08:45.991Z,40.66
2022-12-18T22:11:12.422Z,41.11
2022-12-18T22:13:39.012Z,41.82
2022-12-18T22:16:05.390Z,40.89
2022-12-18T22:18:31.860Z,42.97
2022-12-18T22:20:58.218Z,40.01
2022-12-18T22:23:24.547Z,40.12
2022-12-18T22:25:50.899Z,40.35
2022-12-18T22:28:17.216Z,41.29
2022-12-18T22:30:43.568Z,42.15
2022-12-18T22:33:09.979Z,42.28
2022-12-18T22:35:36.336Z,41.82
2022-12-18T22:38:02.667Z,40.28
2022-12-18T22:40:29.034Z,43.13
2022-12-18T22:42:55.554Z,43.28
2022-12-18T22:45:21.912Z,43.76
2022-12-18T22:47:48.287Z,43.83
2022-12-18T22:50:14.624Z,42.66
2022-12-18T22:52:40.992Z,43.22
2022-12-18T22:55:07.360Z,41.87
2022-12-18T22:57:33.757Z,41.73
2022-12-18T23:00:01.012Z,40.84
2022-12-18T23:02:27.524Z,42.07
2022-12-18T23:04:53.949Z,42.00
2022-12-18T23:07:20.301Z,42.06
2022-12-18T23:09:46.775Z,42.24
2022-12-18T23:12:14.679Z,42.74
2022-12-18T23:14:41.032Z,41.80
2022-12-18T23:17:07.421Z,42.17
2022-12-18T23:19:33.743Z,41.15
2022-12-18T23:22:00.096Z,40.13
2022-12-18T23:24:26.463Z,39.55
2022-12-18T23:26:52.793Z,39.64
2022-12-18T23:29:19.130Z,39.13
2022-12-18T23:31:45.585Z,39.80
2022-12-18T23:34:11.960Z,39.26
2022-12-18T23:36:46.307Z,38.66
2022-12-18T23:39:28.565Z,38.99
2022-12-18T23:41:56.294Z,38.12
2022-12-18T23:44:22.696Z,37.96
2022-12-18T23:46:49.131Z,39.37
2022-12-18T23:49:15.577Z,37.92
2022-12-18T23:51:41.949Z,38.72
2022-12-18T23:54:09.746Z,39.52
2022-12-18T23:56:36.122Z,39.44
2022-12-18T23:59:02.493Z,38.75
